Latest Coastal Weather Observations for Wyndham Airport

IDW60701

Issued at 4:55 pm WST Tuesday 21 October 2014 (issued every 10 minutes, with the page automatically refreshed every 10 minutes)

About coastal observations | Map of coastal stations | Coastal observations for WA | Marine services | Other Formats
Station Details ID: 001006 Name: WYNDHAM AERO Lat: -15.51 Lon: 128.15 Height: 3.8 m
Data from the previous 72 hours. | See also: Recent months for locations in Western Australia
Date/Time
WST
Temp

°C
Wind Pressure Rain
since 9am
mm
Weather Cloud Vis
km
Sea
Height
m
Swell
Dir
 
Speed
knots
Gust
knots
hPa Trend Height
m
Period
s
Dir
21/04:30pm 33.7 N 15 20 1010.3 - 0.0 - - - - - - -
21/04:00pm 34.9 N 16 21 1009.8 - 0.0 - - - - - - -
21/03:30pm 36.3 N 16 21 1009.8 - 0.0 - - - - - - -
21/03:00pm 36.7 NNE 13 19 1009.9 - 0.0 - - - - - - -
21/02:30pm 36.6 NE 13 20 1010.1 - 0.0 - - - - - - -
21/02:00pm 36.9 ENE 11 16 1010.1 - 0.0 - - - - - - -
21/01:30pm 37.3 N 8 14 1010.5 - 0.0 - - - - - - -
21/01:00pm 37.9 N 8 12 1010.9 - 0.0 - - - - - - -
21/12:30pm 37.0 NNE 10 19 1011.4 - 0.0 - - - - - - -
21/12:00pm 38.1 N 8 14 1011.9 - 0.0 - - - - - - -
21/11:30am 36.7 NNW 7 14 1012.4 - 0.0 - - - - - - -
21/11:00am 36.0 N 9 15 1013.0 - 0.0 - - - - - - -
21/10:30am 34.9 N 11 16 1013.6 - 0.0 - - - - - - -
21/10:00am 34.2 N 9 13 1014.4 - 0.0 - - - - - - -
21/09:30am 34.2 N 9 11 1014.7 - 0.0 - - - - - - -
21/09:00am 33.8 NNE 8 13 1014.9 - 0.0 - - - - - - -
21/08:30am 33.0 N 8 13 1015.0 - 0.0 - - - - - - -
21/08:00am 31.9 N 6 9 1015.0 - 0.0 - - - - - - -
21/07:30am 31.1 N 9 12 1015.0 - 0.0 - - - - - - -
21/07:00am 30.2 N 10 13 1014.7 - 0.0 - - - - - - -
21/06:30am 29.2 N 11 14 1014.5 - 0.0 - - - - - - -
21/06:00am 29.2 NNE 4 9 1014.0 - 0.0 - - - - - - -
21/05:30am 25.9 CALM 0 0 1013.1 - 0.0 - - - - - - -
21/05:00am 26.0 N 3 4 1012.8 - 0.0 - - - - - - -
21/04:30am 26.3 SE 1 3 1012.6 - 0.0 - - - - - - -
21/04:00am 27.0 WNW 6 7 1011.9 - 0.0 - - - - - - -
21/03:30am 26.2 WNW 5 6 1011.7 - 0.0 - - - - - - -
21/03:00am 26.2 W 1 3 1011.4 - 0.0 - - - - - - -
21/02:30am 26.3 W 5 7 1011.2 - 0.0 - - - - - - -
21/02:00am 26.7 NW 5 6 1011.1 - 0.0 - - - - - - -
21/01:30am 26.7 NW 5 6 1011.2 - 0.0 - - - - - - -
21/01:00am 26.7 NNW 4 5 1011.3 - 0.0 - - - - - - -
21/12:30am 26.5 NNW 4 4 1011.6 - 0.0 - - - - - - -
21/12:00am 26.9 NE 1 3 1011.9 - 0.0 - - - - - - -
 
Date/Time
WST
Temp

°C
Wind Pressure Rain
since 9am
mm
Weather Cloud Vis
km
Sea
Height
m
Swell
Dir
 
Speed
knots
Gust
knots
hPa Trend Height
m
Period
s
Dir
20/11:30pm 27.1 E 5 6 1012.2 - 0.0 - - - - - - -
20/11:00pm 27.9 ESE 6 7 1012.4 - 0.0 - - - - - - -
20/10:30pm 28.3 ESE 7 11 1012.7 - 0.0 - - - - - - -
20/10:00pm 28.6 E 8 9 1012.6 - 0.0 - - - - - - -
20/09:30pm 28.7 E 6 7 1012.6 - 0.0 - - - - - - -
20/09:00pm 30.0 N 1 4 1012.5 - 0.0 - - - - - - -
20/08:30pm 31.2 N 3 7 1012.4 - 0.0 - - - - - - -
20/08:00pm 31.7 W 3 7 1012.1 - 0.0 - - - - - - -
20/07:30pm 31.9 N 8 14 1011.6 - 0.0 - - - - - - -
20/07:00pm 32.3 N 9 11 1011.1 - 0.0 - - - - - - -
20/06:30pm 32.5 N 10 14 1010.7 - 0.0 - - - - - - -
20/06:00pm 33.2 N 10 14 1010.3 - 0.0 - - - - - - -
20/05:30pm 34.1 N 10 14 1009.8 - 0.0 - - - - - - -
20/05:00pm 35.0 N 13 16 1009.5 - 0.0 - - - - - - -
20/04:30pm 35.9 N 13 16 1009.3 - 0.0 - - - - - - -
20/04:00pm 36.7 N 13 18 1009.1 - 0.0 - - - - - - -
20/03:30pm 37.2 N 12 17 1008.8 - 0.0 - - - - - - -
20/03:00pm 37.8 NNW 5 8 1008.9 - 0.0 - - - - - - -
20/02:30pm 38.5 N 12 18 1009.0 - 0.0 - - - - - - -
20/02:00pm 38.1 N 13 21 1009.3 - 0.0 - - - - - - -
20/01:30pm 38.2 NE 4 9 1009.6 - 0.0 - - - - - - -
20/01:00pm 38.7 ENE 3 8 1010.0 - 0.0 - - - - - - -
20/12:30pm 38.9 E 8 12 1010.6 - 0.0 - - - - - - -
20/12:00pm 38.0 N 5 10 1011.2 - 0.0 - - - - - - -
20/11:30am 37.7 W 5 9 1011.9 - 0.0 - - - - - - -
20/11:00am 37.3 W 5 8 1012.5 - 0.0 - - - - - - -
20/10:30am 37.0 NNW 6 10 1013.2 - 0.0 - - - - - - -
20/10:00am 35.3 WNW 6 11 1013.7 - 0.0 - - - - - - -
20/09:30am 34.9 W 6 11 1014.1 - 0.0 - - - - - - -
20/09:00am 33.6 W 6 9 1014.4 - 0.0 - - - - - - -
20/08:30am 33.1 W 6 9 1014.5 - 0.0 - - - - - - -
20/08:00am 31.9 WSW 5 7 1014.5 - 0.0 - - - - - - -
20/07:30am 30.4 CALM 0 5 1014.7 - 0.0 - - - - - - -
20/07:00am 29.1 E 6 9 1014.7 - 0.0 - - - - - - -
20/06:30am 28.1 ESE 9 11 1014.5 - 0.0 - - - - - - -
20/06:00am 26.6 ESE 8 10 1014.0 - 0.0 - - - - - - -
20/05:30am 25.7 ESE 8 11 1013.6 - 0.0 - - - - - - -
20/05:00am 24.6 E 8 11 1013.1 - 0.0 - - - - - - -
20/04:30am 24.5 E 4 5 1012.3 - 0.0 - - - - - - -
20/04:00am 24.9 E 6 7 1012.0 - 0.0 - - - - - - -
20/03:30am 25.0 ESE 5 7 1011.5 - 0.0 - - - - - - -
20/03:00am 25.6 ENE 6 7 1011.4 - 0.0 - - - - - - -
20/02:30am 26.4 E 7 8 1011.2 - 0.0 - - - - - - -
20/02:00am 26.5 ESE 3 7 1011.0 - 0.0 - - - - - - -
20/01:30am 28.3 N 5 7 1010.8 - 0.0 - - - - - - -
20/01:00am 26.8 WNW 5 6 1010.8 - 0.0 - - - - - - -
20/12:30am 26.0 NNW 5 7 1011.1 - 0.0 - - - - - - -
20/12:00am 26.8 W 3 5 1011.3 - 0.0 - - - - - - -
 
Date/Time
WST
Temp

°C
Wind Pressure Rain
since 9am
mm
Weather Cloud Vis
km
Sea
Height
m
Swell
Dir
 
Speed
knots
Gust
knots
hPa Trend Height
m
Period
s
Dir
19/11:30pm 26.5 WNW 6 7 1011.4 - 0.0 - - - - - - -
19/11:00pm 26.2 CALM 0 3 1011.3 - 0.0 - - - - - - -
19/10:30pm 26.7 CALM 0 0 1011.5 - 0.0 - - - - - - -
19/10:00pm 27.7 ESE 2 6 1011.9 - 0.0 - - - - - - -
19/09:30pm 29.8 W 3 4 1012.0 - 0.0 - - - - - - -
19/09:00pm 29.7 S 5 6 1012.1 - 0.0 - - - - - - -
19/08:30pm 29.8 SW 5 7 1011.8 - 0.0 - - - - - - -
19/08:00pm 31.8 NNW 5 7 1011.5 - 0.0 - - - - - - -
19/07:30pm 32.5 NNW 7 8 1011.3 - 0.0 - - - - - - -
19/07:00pm 32.9 N 10 13 1011.0 - 0.0 - - - - - - -
19/06:30pm 33.2 N 11 14 1010.6 - 0.0 - - - - - - -
19/06:00pm 33.6 N 13 17 1010.3 - 0.0 - - - - - - -
19/05:30pm 34.1 N 13 15 1010.1 - 0.0 - - - - - - -
19/05:00pm 34.8 N 12 16 1009.8 - 0.0 - - - - - - -
19/04:30pm 35.7 NNW 11 14 1009.5 - 0.0 - - - - - - -
19/04:00pm 36.4 NNW 12 16 1009.2 - 0.0 - - - - - - -
19/03:30pm 36.5 NNW 13 17 1009.0 - 0.0 - - - - - - -
19/03:00pm 37.7 NNW 10 14 1009.1 - 0.0 - - - - - - -
19/02:30pm 37.6 NNW 12 16 1009.4 - 0.0 - - - - - - -
19/02:00pm 38.0 NNW 13 20 1009.5 - 0.0 - - - - - - -
19/01:30pm 38.2 NNW 13 17 1010.0 - 0.0 - - - - - - -
19/01:00pm 37.4 NNW 12 17 1010.3 - 0.0 - - - - - - -
19/12:30pm 38.1 N 10 18 1010.7 - 0.0 - - - - - - -
19/12:00pm 37.7 NNW 11 15 1011.2 - 0.0 - - - - - - -
19/11:30am 36.8 N 10 17 1011.8 - 0.0 - - - - - - -
19/11:00am 37.0 N 8 13 1012.3 - 0.0 - - - - - - -
19/10:30am 37.0 N 9 13 1012.9 - 0.0 - - - - - - -
19/10:00am 34.9 NNE 6 12 1013.3 - 0.0 - - - - - - -
19/09:30am 35.2 N 7 11 1013.8 - 0.0 - - - - - - -
19/09:00am 34.3 NE 7 11 1014.0 - 0.0 - - - - - - -
19/08:30am 33.1 NNE 4 8 1014.2 - 0.0 - - - - - - -
19/08:00am 30.7 E 4 6 1014.3 - 0.0 - - - - - - -
19/07:30am 28.5 ESE 6 8 1014.2 - 0.0 - - - - - - -
19/07:00am 25.9 ESE 11 14 1014.2 - 0.0 - - - - - - -
19/06:30am 25.2 ESE 10 13 1013.9 - 0.0 - - - - - - -
19/06:00am 22.7 E 6 7 1013.2 - 0.0 - - - - - - -
19/05:30am 20.3 E 8 9 1012.8 - 0.0 - - - - - - -
19/05:00am 19.8 E 6 8 1012.6 - 0.0 - - - - - - -
19/04:30am 20.6 S 1 5 1012.1 - 0.0 - - - - - - -
19/04:00am 22.0 S 1 5 1011.7 - 0.0 - - - - - - -
19/03:30am 22.6 WSW 3 6 1011.2 - 0.0 - - - - - - -
19/03:00am 21.7 WNW 4 4 1011.0 - 0.0 - - - - - - -
19/02:30am 21.2 NW 4 5 1010.9 - 0.0 - - - - - - -
19/02:00am 22.1 WSW 4 5 1010.7 - 0.0 - - - - - - -
19/01:30am 21.9 NW 3 4 1010.6 - 0.0 - - - - - - -
19/01:00am 23.5 W 3 4 1010.8 - 0.0 - - - - - - -
19/12:30am 22.2 WSW 1 4 1011.0 - 0.0 - - - - - - -
19/12:00am 21.3 N 2 3 1011.3 - 0.0 - - - - - - -
 
Date/Time
WST
Temp

°C
Wind Pressure Rain
since 9am
mm
Weather Cloud Vis
km
Sea
Height
m
Swell
Dir
 
Speed
knots
Gust
knots
hPa Trend Height
m
Period
s
Dir
18/11:30pm 21.1 SE 3 4 1011.3 - 0.0 - - - - - - -
18/11:00pm 21.2 ESE 4 5 1011.5 - 0.0 - - - - - - -
18/10:30pm 22.5 ESE 3 4 1011.7 - 0.0 - - - - - - -
18/10:00pm 23.9 E 3 4 1011.9 - 0.0 - - - - - - -
18/09:30pm 24.9 E 5 5 1012.0 - 0.0 - - - - - - -
18/09:00pm 26.1 E 7 8 1011.9 - 0.0 - - - - - - -
18/08:30pm 26.7 S 1 4 1011.7 - 0.0 - - - - - - -
18/08:00pm 29.9 NW 6 7 1011.5 - 0.0 - - - - - - -
18/07:30pm 30.5 NNW 6 9 1011.2 - 0.0 - - - - - - -
18/07:00pm 31.7 N 9 13 1010.9 - 0.0 - - - - - - -
18/06:30pm 31.9 N 12 18 1010.6 - 0.0 - - - - - - -
18/06:00pm 32.0 N 11 16 1010.2 - 0.0 - - - - - - -
18/05:30pm 32.9 N 13 17 1009.8 - 0.0 - - - - - - -
18/05:00pm 33.9 N 14 18 1009.6 - 0.0 - - - - - - -

Other Formats:

Comma delimited format used in spreadsheet applications
http://www.bom.gov.au/fwo/IDW60701/IDW60701.95214.axf

JavaScript Object Notation format (JSON) in row-major order
http://www.bom.gov.au/fwo/IDW60701/IDW60701.95214.json